createdAt,value
2022-09-10T00:04:55.621Z,13.80
2022-09-10T00:09:57.286Z,14.80
2022-09-10T00:14:58.958Z,13.90
2022-09-10T00:20:00.657Z,13.80
2022-09-10T00:25:06.231Z,13.80
2022-09-10T00:30:10.255Z,14.40
2022-09-10T00:40:14.966Z,14.20
2022-09-10T00:45:26.903Z,14.40
2022-09-10T00:50:38.198Z,17.30
2022-09-10T00:55:42.480Z,14.30
2022-09-10T01:00:44.314Z,15.00
2022-09-10T01:05:47.306Z,14.80
2022-09-10T01:11:01.512Z,14.10
2022-09-10T01:16:18.900Z,14.20
2022-09-10T01:21:55.085Z,13.90
2022-09-10T01:27:35.713Z,14.30
2022-09-10T01:32:53.272Z,14.00
2022-09-10T01:37:59.977Z,14.30
2022-09-10T01:54:09.110Z,14.20
2022-09-10T01:59:34.493Z,14.30
2022-09-10T02:04:37.239Z,14.40
2022-09-10T02:19:46.028Z,14.10
2022-09-10T02:29:50.097Z,13.90
2022-09-10T02:39:54.695Z,14.20
2022-09-10T02:44:56.576Z,14.20
2022-09-10T02:49:58.286Z,15.30
2022-09-10T02:55:00.164Z,15.90
2022-09-10T03:00:02.906Z,14.30
2022-09-10T03:05:04.937Z,14.20
2022-09-10T03:10:07.189Z,14.20
2022-09-10T03:15:09.556Z,14.20
2022-09-10T03:20:11.237Z,14.30
2022-09-10T03:25:12.881Z,14.90
2022-09-10T03:30:14.605Z,14.90
2022-09-10T03:35:16.846Z,14.30
2022-09-10T03:50:22.985Z,14.20
2022-09-10T03:55:24.812Z,17.10
2022-09-10T04:00:27.076Z,13.90
2022-09-10T04:05:29.438Z,13.90
2022-09-10T04:10:31.355Z,13.90
2022-09-10T04:30:40.348Z,14.10
2022-09-10T04:35:42.862Z,13.80
2022-09-10T04:51:14.661Z,14.20
2022-09-10T04:56:14.467Z,14.00
2022-09-10T05:01:16.287Z,14.90
2022-09-10T05:06:18.080Z,13.90
2022-09-10T05:16:22.112Z,14.30
2022-09-10T05:21:23.834Z,14.30
2022-09-10T05:26:26.202Z,14.80
2022-09-10T05:31:28.083Z,15.00
2022-09-10T05:36:33.232Z,14.90
2022-09-10T05:41:35.087Z,16.60
2022-09-10T05:46:36.806Z,14.60
2022-09-10T05:51:38.501Z,14.50
2022-09-10T06:11:50.358Z,14.60
2022-09-10T06:21:56.590Z,14.60
2022-09-10T06:26:59.375Z,14.60
2022-09-10T06:32:01.364Z,15.00
2022-09-10T06:52:31.248Z,16.50
2022-09-10T06:57:43.933Z,15.10
2022-09-10T07:02:49.661Z,16.90
2022-09-10T07:07:54.107Z,15.30
2022-09-10T07:13:01.758Z,15.20
2022-09-10T07:18:04.217Z,15.30
2022-09-10T07:28:19.695Z,15.30
2022-09-10T07:43:30.173Z,15.50
2022-09-10T07:53:35.054Z,15.90
2022-09-10T07:58:41.368Z,17.70
2022-09-10T08:03:49.063Z,15.60
2022-09-10T08:13:54.120Z,16.00
2022-09-10T08:29:05.390Z,16.10
2022-09-10T08:34:09.415Z,17.00
2022-09-10T08:39:11.891Z,15.90
2022-09-10T08:44:58.661Z,16.00
2022-09-10T08:50:06.681Z,17.20
2022-09-10T08:55:31.722Z,16.60
2022-09-10T09:00:37.927Z,16.20
2022-09-10T09:05:49.059Z,16.80
2022-09-10T09:11:16.047Z,19.50
2022-09-10T09:16:36.091Z,17.30
2022-09-10T09:21:46.457Z,17.40
2022-09-10T09:31:57.828Z,17.90
2022-09-10T09:37:04.480Z,17.40
2022-09-10T09:47:09.218Z,17.10
2022-09-10T09:52:23.405Z,17.10
2022-09-10T09:57:25.225Z,17.30
2022-09-10T10:02:29.645Z,16.50
2022-09-10T10:07:34.414Z,19.70
2022-09-10T10:12:48.366Z,17.00
2022-09-10T10:17:50.401Z,19.70
2022-09-10T10:22:53.149Z,17.40
2022-09-10T10:33:38.947Z,17.30
2022-09-10T10:39:03.726Z,18.40
2022-09-10T10:44:17.537Z,17.30
2022-09-10T10:50:00.550Z,17.60
2022-09-10T10:55:28.057Z,17.60
2022-09-10T11:00:41.186Z,17.10
2022-09-10T11:05:51.391Z,17.10
2022-09-10T11:11:16.545Z,17.20
2022-09-10T11:16:43.447Z,17.30
2022-09-10T11:21:53.533Z,17.60
2022-09-10T11:27:17.955Z,17.70
2022-09-10T11:32:40.267Z,17.50
2022-09-10T11:38:26.434Z,17.10
2022-09-10T11:43:34.115Z,17.30
2022-09-10T11:48:50.978Z,17.80
2022-09-10T11:53:54.879Z,18.30
2022-09-10T11:59:35.208Z,18.90
2022-09-10T12:04:40.373Z,17.90
2022-09-10T12:10:04.989Z,19.40
2022-09-10T12:15:27.493Z,19.50
2022-09-10T12:20:33.364Z,20.10
2022-09-10T12:25:35.182Z,20.10
2022-09-10T12:30:36.854Z,19.20
2022-09-10T12:35:45.264Z,18.80
2022-09-10T12:40:50.109Z,19.10
2022-09-10T12:46:07.642Z,19.00
2022-09-10T12:51:18.482Z,21.10
2022-09-10T12:56:49.605Z,20.40
2022-09-10T13:01:52.208Z,19.00
2022-09-10T13:07:06.075Z,19.00
2022-09-10T13:12:19.423Z,18.60
2022-09-10T13:17:59.657Z,18.20
2022-09-10T13:23:22.898Z,17.20
2022-09-10T13:28:48.522Z,17.10
2022-09-10T13:33:50.337Z,17.10
2022-09-10T13:39:16.508Z,19.20
2022-09-10T13:45:00.008Z,19.00
2022-09-10T13:50:05.971Z,18.50
2022-09-10T13:55:08.646Z,18.00
2022-09-10T14:00:13.469Z,17.90
2022-09-10T14:05:28.910Z,18.70
2022-09-10T14:10:31.214Z,20.40
2022-09-10T14:15:39.551Z,19.90
2022-09-10T14:20:42.694Z,19.00
2022-09-10T14:25:46.601Z,18.80
2022-09-10T14:30:49.971Z,18.50
2022-09-10T14:35:53.482Z,18.70
2022-09-10T14:41:06.668Z,18.40
2022-09-10T14:46:32.757Z,17.80
2022-09-10T14:51:34.589Z,17.90
2022-09-10T14:56:39.345Z,17.70
2022-09-10T15:01:42.578Z,17.40
2022-09-10T15:12:12.303Z,17.90
2022-09-10T15:17:15.039Z,17.90
2022-09-10T15:22:27.986Z,18.00
2022-09-10T15:27:29.902Z,18.00
2022-09-10T15:37:34.189Z,17.30
2022-09-10T15:42:36.057Z,17.40
2022-09-10T15:47:39.156Z,18.90
2022-09-10T15:57:43.320Z,16.70
2022-09-10T16:02:49.305Z,16.90
2022-09-10T16:07:51.305Z,17.00
2022-09-10T16:22:59.608Z,16.80
2022-09-10T16:28:02.234Z,16.20
2022-09-10T17:23:31.349Z,15.60
2022-09-10T17:28:33.267Z,15.70
2022-09-10T17:43:40.470Z,15.60
2022-09-10T17:48:48.219Z,15.50
2022-09-10T17:53:55.251Z,15.50
2022-09-10T17:59:05.004Z,15.50
2022-09-10T18:04:08.694Z,15.60
2022-09-10T18:09:11.406Z,17.00
2022-09-10T18:14:17.684Z,15.40
2022-09-10T18:19:19.641Z,15.40
2022-09-10T18:24:24.217Z,15.40
2022-09-10T18:29:29.964Z,15.40
2022-09-10T18:50:01.292Z,15.30
2022-09-10T18:55:03.310Z,15.30
2022-09-10T19:00:05.770Z,15.30
2022-09-10T19:10:16.725Z,15.30
2022-09-10T19:15:18.721Z,15.20
2022-09-10T19:20:20.835Z,15.30
2022-09-10T19:25:23.026Z,15.40
2022-09-10T19:40:29.607Z,15.10
2022-09-10T19:45:32.048Z,15.60
2022-09-10T20:00:46.734Z,15.20
2022-09-10T20:05:49.376Z,15.10
2022-09-10T20:16:00.963Z,15.20
2022-09-10T20:21:14.193Z,15.20
2022-09-10T20:26:18.689Z,15.20
2022-09-10T20:31:21.852Z,15.30
2022-09-10T20:36:25.284Z,15.70
2022-09-10T20:41:33.479Z,15.30
2022-09-10T20:46:35.712Z,15.20
2022-09-10T20:51:41.773Z,15.20
2022-09-10T20:56:44.622Z,15.70
2022-09-10T21:01:47.389Z,16.40
2022-09-10T21:06:49.684Z,15.00
2022-09-10T21:11:51.642Z,15.10
2022-09-10T21:16:53.833Z,15.10
2022-09-10T21:21:55.738Z,15.10
2022-09-10T21:37:02.309Z,15.10
2022-09-10T21:42:05.578Z,15.10
2022-09-10T21:47:07.616Z,15.10
2022-09-10T21:52:09.506Z,14.90
2022-09-10T21:57:12.990Z,14.90
2022-09-10T22:02:15.094Z,14.90
2022-09-10T22:07:17.067Z,16.10
2022-09-10T22:12:18.763Z,14.80
2022-09-10T22:22:22.557Z,14.80
2022-09-10T22:27:24.310Z,14.70
2022-09-10T22:32:26.772Z,14.70
2022-09-10T22:37:28.531Z,15.60
2022-09-10T22:47:33.814Z,14.70
2022-09-10T22:57:41.732Z,14.70
2022-09-10T23:02:43.518Z,14.70
2022-09-10T23:07:45.376Z,16.50
2022-09-10T23:12:47.110Z,14.90
2022-09-10T23:17:48.813Z,16.30
2022-09-10T23:22:51.111Z,14.50
2022-09-10T23:27:53.308Z,14.60
2022-09-10T23:32:54.972Z,15.20
2022-09-10T23:37:56.760Z,15.30
2022-09-10T23:53:02.942Z,14.50
2022-09-10T23:58:04.566Z,14.70
